createdAt,value
2023-01-13T00:01:29.239Z,100442.66
2023-01-13T00:03:56.592Z,100449.63
2023-01-13T00:06:26.081Z,100428.66
2023-01-13T00:08:54.757Z,100423.59
2023-01-13T00:11:21.722Z,100432.88
2023-01-13T00:13:48.357Z,100423.19
2023-01-13T00:16:19.870Z,100424.34
2023-01-13T00:18:48.840Z,100428.97
2023-01-13T00:21:18.184Z,100428.56
2023-01-13T00:23:46.248Z,100422.75
2023-01-13T00:26:19.238Z,100420.78
2023-01-13T00:28:45.915Z,100427.72
2023-01-13T00:31:15.354Z,100439.31
2023-01-13T00:33:42.573Z,100433.88
2023-01-13T00:36:28.989Z,100441.63
2023-01-13T00:38:55.625Z,100444.75
2023-01-13T00:44:07.904Z,100430.38
2023-01-13T00:46:38.330Z,100430.75
2023-01-13T00:51:50.282Z,100425.31
2023-01-13T00:54:16.982Z,100421.47
2023-01-13T00:56:43.575Z,100420.25
2023-01-13T00:59:13.830Z,100396.63
2023-01-13T01:01:41.236Z,100390.44
2023-01-13T01:04:30.450Z,100394.69
2023-01-13T01:06:59.304Z,100388.50
2023-01-13T01:09:32.682Z,100395.91
2023-01-13T01:12:02.336Z,100402.09
2023-01-13T01:14:34.903Z,100397.06
2023-01-13T01:17:01.648Z,100383.50
2023-01-13T01:19:28.245Z,100384.22
2023-01-13T01:21:55.130Z,100380.34
2023-01-13T01:24:21.928Z,100385.75
2023-01-13T01:26:48.549Z,100374.94
2023-01-13T01:32:14.502Z,100377.63
2023-01-13T01:34:41.283Z,100386.53
2023-01-13T01:37:07.856Z,100392.72
2023-01-13T01:39:34.473Z,100402.03
2023-01-13T01:42:19.638Z,100407.03
2023-01-13T01:44:55.186Z,100412.81
2023-01-13T01:47:22.580Z,100417.88
2023-01-13T01:49:50.081Z,100419.44
2023-01-13T01:52:26.136Z,100419.44
2023-01-13T01:55:01.658Z,100410.91
2023-01-13T01:57:42.161Z,100422.13
2023-01-13T02:00:12.795Z,100405.09
2023-01-13T02:02:44.598Z,100418.63
2023-01-13T02:05:14.289Z,100398.91
2023-01-13T02:07:43.236Z,100389.59
2023-01-13T02:10:16.106Z,100388.78
2023-01-13T02:12:48.508Z,100390.38
2023-01-13T02:15:31.369Z,100401.59
2023-01-13T02:18:32.063Z,100396.56
2023-01-13T02:21:38.004Z,100388.78
2023-01-13T02:24:38.949Z,100383.38
2023-01-13T02:30:57.343Z,100396.91
2023-01-13T02:33:37.267Z,100383.31
2023-01-13T02:36:10.998Z,100374.44
2023-01-13T02:39:11.204Z,100365.13
2023-01-13T02:42:15.484Z,100360.91
2023-01-13T02:44:49.935Z,100354.34
2023-01-13T02:47:22.282Z,100356.69
2023-01-13T02:50:06.874Z,100350.84
2023-01-13T02:52:38.352Z,100355.47
2023-01-13T02:55:12.524Z,100363.22
2023-01-13T03:06:16.323Z,100353.94
2023-01-13T03:08:51.304Z,100358.94
2023-01-13T03:11:20.231Z,100363.94
2023-01-13T03:14:01.130Z,100350.38
2023-01-13T03:17:10.922Z,100346.50
2023-01-13T03:19:46.712Z,100351.53
2023-01-13T03:22:32.877Z,100351.88
2023-01-13T03:25:10.187Z,100347.59
2023-01-13T03:30:56.045Z,100347.63
2023-01-13T03:33:36.424Z,100348.03
2023-01-13T03:36:14.138Z,100354.22
2023-01-13T03:38:46.784Z,100350.72
2023-01-13T03:41:25.557Z,100363.47
2023-01-13T03:44:26.035Z,100362.34
2023-01-13T03:47:18.182Z,100356.53
2023-01-13T03:50:23.453Z,100348.41
2023-01-13T03:52:56.798Z,100341.84
2023-01-13T03:55:28.773Z,100347.63
2023-01-13T04:00:53.625Z,100353.81
2023-01-13T04:03:26.955Z,100347.25
2023-01-13T04:06:01.148Z,100343.00
2023-01-13T04:08:42.256Z,100340.31
2023-01-13T04:11:21.612Z,100337.22
2023-01-13T04:13:49.992Z,100341.03
2023-01-13T04:16:16.593Z,100341.44
2023-01-13T04:21:23.945Z,100353.06
2023-01-13T04:23:51.918Z,100346.47
2023-01-13T04:26:23.492Z,100353.00
2023-01-13T04:28:51.876Z,100366.50
2023-01-13T04:31:20.674Z,100351.00
2023-01-13T04:33:47.439Z,100355.25
2023-01-13T04:36:14.160Z,100357.97
2023-01-13T04:38:40.690Z,100372.69
2023-01-13T04:41:07.309Z,100361.44
2023-01-13T04:43:34.020Z,100359.50
2023-01-13T04:46:30.498Z,100363.38
2023-01-13T04:48:54.854Z,100349.03
2023-01-13T04:51:23.500Z,100347.09
2023-01-13T04:53:52.346Z,100340.88
2023-01-13T04:56:49.344Z,100339.31
2023-01-13T05:02:19.810Z,100347.38
2023-01-13T05:04:47.528Z,100340.41
2023-01-13T05:07:15.730Z,100339.25
2023-01-13T05:09:42.366Z,100330.75
2023-01-13T05:13:02.155Z,100326.50
2023-01-13T05:15:55.753Z,100330.75
2023-01-13T05:21:34.668Z,100324.91
2023-01-13T05:24:19.684Z,100324.13
2023-01-13T05:27:15.174Z,100321.41
2023-01-13T05:30:13.609Z,100308.69
2023-01-13T05:32:48.956Z,100322.22
2023-01-13T05:35:18.796Z,100331.50
2023-01-13T05:41:23.161Z,100330.34
2023-01-13T05:43:53.747Z,100326.06
2023-01-13T05:47:01.662Z,100329.94
2023-01-13T05:49:28.192Z,100340.34
2023-01-13T05:51:54.786Z,100341.88
2023-01-13T05:54:24.438Z,100345.00
2023-01-13T05:56:51.226Z,100348.81
2023-01-13T05:59:17.956Z,100352.31
2023-01-13T06:01:44.439Z,100347.66
2023-01-13T06:04:11.066Z,100344.94
2023-01-13T06:06:37.723Z,100344.16
2023-01-13T06:09:26.394Z,100340.28
2023-01-13T06:12:17.535Z,100341.84
2023-01-13T06:16:02.787Z,100343.00
2023-01-13T06:39:20.339Z,100356.19
2023-01-13T06:42:51.599Z,100345.00
2023-01-13T06:45:18.792Z,100355.84
2023-01-13T06:47:48.565Z,100365.94
2023-01-13T06:50:18.672Z,100368.63
2023-01-13T07:17:26.624Z,100387.25
2023-01-13T07:29:56.737Z,100395.06
2023-01-13T07:32:23.254Z,100392.75
2023-01-13T07:34:49.830Z,100400.13
2023-01-13T07:37:16.370Z,100390.47
2023-01-13T07:39:45.200Z,100398.59
2023-01-13T07:42:30.478Z,100393.94
2023-01-13T07:44:56.974Z,100391.63
2023-01-13T07:47:23.490Z,100388.53
2023-01-13T07:49:49.991Z,100398.63
2023-01-13T07:52:16.463Z,100404.06
2023-01-13T07:54:42.971Z,100414.13
2023-01-13T07:57:09.535Z,100411.06
2023-01-13T07:59:36.102Z,100407.19
2023-01-13T08:02:02.852Z,100415.34
2023-01-13T08:04:29.455Z,100409.94
2023-01-13T08:06:55.987Z,100405.28
2023-01-13T08:09:22.595Z,100408.00
2023-01-13T08:12:09.109Z,100405.03
2023-01-13T08:14:35.674Z,100398.84
2023-01-13T08:17:02.221Z,100397.31
2023-01-13T08:19:31.165Z,100409.28
2023-01-13T08:22:32.494Z,100397.28
2023-01-13T08:25:35.733Z,100415.84
2023-01-13T08:28:04.058Z,100417.41
2023-01-13T08:30:56.351Z,100394.94
2023-01-13T08:33:38.079Z,100428.25
2023-01-13T09:13:20.914Z,100495.34
2023-01-13T09:16:13.583Z,100497.25
2023-01-13T09:25:30.926Z,100508.09
2023-01-13T09:27:57.736Z,100510.03
2023-01-13T09:30:24.873Z,100505.31
2023-01-13T09:33:11.334Z,100484.81
2023-01-13T09:35:37.875Z,100508.41
2023-01-13T09:38:04.500Z,100506.50
2023-01-13T09:40:30.991Z,100513.84
2023-01-13T09:43:23.993Z,100507.66
2023-01-13T09:45:59.859Z,100520.44
2023-01-13T09:48:51.882Z,100523.56
2023-01-13T09:51:45.749Z,100532.47
2023-01-13T09:57:52.233Z,100543.72
2023-01-13T10:00:31.763Z,100538.31
2023-01-13T10:03:41.141Z,100533.28
2023-01-13T10:13:13.945Z,100543.44
2023-01-13T10:15:46.966Z,100534.91
2023-01-13T10:25:32.642Z,100564.69
2023-01-13T10:28:28.440Z,100561.22
2023-01-13T10:30:58.728Z,100569.78
2023-01-13T10:33:30.030Z,100565.16
2023-01-13T10:37:50.026Z,100578.31
2023-01-13T10:39:24.913Z,100574.91
2023-01-13T10:42:02.904Z,100576.50
2023-01-13T10:44:31.198Z,100585.50
2023-01-13T10:47:03.208Z,100588.59
2023-01-13T10:49:36.330Z,100580.84
2023-01-13T10:52:04.671Z,100588.16
2023-01-13T10:54:31.374Z,100594.75
2023-01-13T10:57:21.681Z,100601.72
2023-01-13T10:59:50.908Z,100594.41
2023-01-13T11:02:34.426Z,100607.97
2023-01-13T11:05:15.937Z,100605.66
2023-01-13T11:07:50.573Z,100609.94
2023-01-13T11:10:25.397Z,100604.56
2023-01-13T11:13:10.210Z,100610.03
2023-01-13T11:15:44.553Z,100613.13
2023-01-13T11:18:19.473Z,100614.31
2023-01-13T11:20:51.318Z,100618.56
2023-01-13T11:23:25.407Z,100624.81
2023-01-13T11:25:59.433Z,100617.06
2023-01-13T11:28:44.213Z,100611.63
2023-01-13T11:31:36.317Z,100621.75
2023-01-13T11:34:31.117Z,100634.97
2023-01-13T11:37:21.615Z,100624.16
2023-01-13T11:39:58.690Z,100635.03
2023-01-13T11:42:46.102Z,100630.41
2023-01-13T11:45:25.026Z,100635.88
2023-01-13T11:48:00.371Z,100632.00
2023-01-13T11:54:59.493Z,100656.09
2023-01-13T11:58:18.993Z,100650.31
2023-01-13T12:01:04.284Z,100649.97
2023-01-13T12:04:11.165Z,100662.72
2023-01-13T12:13:40.222Z,100677.06
2023-01-13T12:16:17.414Z,100663.53
2023-01-13T12:19:12.084Z,100663.91
2023-01-13T12:21:58.531Z,100667.00
2023-01-13T12:24:47.628Z,100684.03
2023-01-13T12:27:47.538Z,100676.31
2023-01-13T12:30:27.716Z,100680.97
2023-01-13T12:33:18.642Z,100697.25
2023-01-13T12:36:01.337Z,100689.94
2023-01-13T12:38:37.812Z,100697.69
2023-01-13T12:41:10.834Z,100701.16
2023-01-13T12:44:00.308Z,100709.72
2023-01-13T12:46:26.882Z,100693.06
2023-01-13T12:48:55.370Z,100708.97
2023-01-13T12:51:25.651Z,100702.03
2023-01-13T12:53:53.366Z,100708.63
2023-01-13T12:56:27.591Z,100707.09
2023-01-13T12:59:19.971Z,100718.00
2023-01-13T13:01:49.344Z,100722.25
2023-01-13T13:04:21.384Z,100728.09
2023-01-13T13:07:04.998Z,100739.72
2023-01-13T13:09:42.109Z,100739.34
2023-01-13T13:13:09.057Z,100738.94
2023-01-13T13:15:37.079Z,100733.88
2023-01-13T13:18:17.135Z,100744.38
2023-01-13T13:20:54.950Z,100750.97
2023-01-13T13:23:29.373Z,100759.94
2023-01-13T13:26:03.669Z,100767.31
2023-01-13T13:28:39.063Z,100771.56
2023-01-13T13:31:19.053Z,100775.88
2023-01-13T13:33:58.445Z,100774.34
2023-01-13T13:37:44.381Z,100780.56
2023-01-13T13:43:17.989Z,100779.00
2023-01-13T13:46:21.531Z,100781.31
2023-01-13T13:49:44.607Z,100785.97
2023-01-13T13:52:34.970Z,100791.78
2023-01-13T13:55:13.922Z,100796.00
2023-01-13T13:57:45.245Z,100791.38
2023-01-13T14:00:15.181Z,100811.16
2023-01-13T14:02:51.355Z,100803.00
2023-01-13T14:05:23.044Z,100805.72
2023-01-13T14:07:52.684Z,100828.97
2023-01-13T14:10:24.751Z,100833.59
2023-01-13T14:12:51.581Z,100837.09
2023-01-13T14:15:33.319Z,100847.16
2023-01-13T14:18:03.031Z,100845.59
2023-01-13T14:20:30.290Z,100859.53
2023-01-13T14:23:01.558Z,100857.22
2023-01-13T14:25:29.468Z,100863.78
2023-01-13T14:27:59.625Z,100861.41
2023-01-13T14:30:27.712Z,100866.06
2023-01-13T14:32:56.005Z,100873.03
2023-01-13T14:35:22.583Z,100885.81
2023-01-13T14:37:50.575Z,100877.69
2023-01-13T14:40:46.493Z,100879.63
2023-01-13T14:43:16.637Z,100897.38
2023-01-13T14:45:55.417Z,100906.34
2023-01-13T14:48:23.705Z,100892.34
2023-01-13T14:50:50.417Z,100903.91
2023-01-13T14:53:29.235Z,100907.75
2023-01-13T14:55:55.835Z,100907.31
2023-01-13T14:58:22.479Z,100910.84
2023-01-13T15:00:50.990Z,100930.19
2023-01-13T15:03:20.674Z,100936.41
2023-01-13T15:05:50.259Z,100932.53
2023-01-13T15:08:21.309Z,100946.13
2023-01-13T15:10:52.934Z,100959.69
2023-01-13T15:13:46.999Z,100939.88
2023-01-13T15:16:26.596Z,100951.13
2023-01-13T15:18:55.716Z,100948.03
2023-01-13T15:21:24.634Z,100970.09
2023-01-13T15:23:53.905Z,100975.53
2023-01-13T15:26:25.341Z,100980.56
2023-01-13T15:28:54.329Z,100989.09
2023-01-13T15:31:21.553Z,100981.72
2023-01-13T15:33:48.794Z,100994.53
2023-01-13T15:36:27.862Z,101003.38
2023-01-13T15:38:55.178Z,101013.44
2023-01-13T15:41:42.059Z,101013.03
2023-01-13T15:44:30.333Z,101030.81
2023-01-13T15:46:57.910Z,101033.88
2023-01-13T15:49:34.763Z,101027.69
2023-01-13T15:52:22.093Z,101028.44
2023-01-13T15:54:49.881Z,101040.06
2023-01-13T15:57:22.183Z,101038.06
2023-01-13T15:59:49.178Z,101042.28
2023-01-13T16:02:18.294Z,101043.44
2023-01-13T16:04:45.606Z,101061.63
2023-01-13T16:07:16.004Z,101067.50
2023-01-13T16:09:42.944Z,101055.84
2023-01-13T16:12:09.578Z,101072.53
2023-01-13T16:14:36.390Z,101067.91
2023-01-13T16:17:10.722Z,101071.75
2023-01-13T16:19:37.317Z,101084.19
2023-01-13T16:22:04.261Z,101086.91
2023-01-13T16:24:30.834Z,101086.09
2023-01-13T16:26:57.432Z,101088.03
2023-01-13T16:29:26.231Z,101089.59
2023-01-13T16:31:55.039Z,101081.81
2023-01-13T16:34:21.658Z,101089.13
2023-01-13T16:36:48.595Z,101096.81
2023-01-13T16:39:22.012Z,101104.19
2023-01-13T16:41:49.213Z,101099.13
2023-01-13T16:44:15.944Z,101101.03
2023-01-13T16:46:46.492Z,101113.81
2023-01-13T16:49:15.429Z,101115.75
2023-01-13T16:51:42.133Z,101143.59
2023-01-13T16:54:09.573Z,101143.47
2023-01-13T16:56:36.936Z,101140.06
2023-01-13T16:59:07.718Z,101142.13
2023-01-13T17:01:37.478Z,101142.34
2023-01-13T17:04:04.539Z,101136.75
2023-01-13T17:06:31.055Z,101136.25
2023-01-13T17:09:07.835Z,101140.75
2023-01-13T17:11:34.696Z,101146.09
2023-01-13T17:14:01.396Z,101144.09
2023-01-13T17:16:45.897Z,101152.13
2023-01-13T17:19:12.780Z,101157.50
2023-01-13T17:21:40.458Z,101184.50
2023-01-13T17:24:07.983Z,101168.97
2023-01-13T17:26:39.140Z,101178.97
2023-01-13T17:29:09.557Z,101161.91
2023-01-13T17:31:36.581Z,101173.41
2023-01-13T17:34:04.686Z,101169.94
2023-01-13T17:36:31.751Z,101180.31
2023-01-13T17:38:58.695Z,101182.25
2023-01-13T17:41:26.570Z,101196.13
2023-01-13T17:43:53.786Z,101192.66
2023-01-13T17:46:22.874Z,101197.91
2023-01-13T17:48:51.136Z,101200.94
2023-01-13T17:51:18.531Z,101196.59
2023-01-13T17:53:45.670Z,101195.81
2023-01-13T17:56:15.573Z,101198.44
2023-01-13T17:58:42.133Z,101200.78
2023-01-13T18:01:12.838Z,101206.09
2023-01-13T18:03:40.154Z,101217.72
2023-01-13T18:06:09.467Z,101211.88
2023-01-13T18:08:36.178Z,101216.16
2023-01-13T18:11:03.038Z,101215.44
2023-01-13T18:13:31.535Z,101216.66
2023-01-13T18:16:01.980Z,101223.31
2023-01-13T18:18:28.662Z,101220.25
2023-01-13T18:21:13.993Z,101223.31
2023-01-13T18:23:59.054Z,101223.66
2023-01-13T18:26:45.398Z,101221.13
2023-01-13T18:29:11.976Z,101219.81
2023-01-13T18:31:38.719Z,101218.59
2023-01-13T18:34:10.185Z,101233.28
2023-01-13T18:36:38.275Z,101243.72
2023-01-13T18:39:05.381Z,101242.59
2023-01-13T18:41:50.562Z,101244.97
2023-01-13T18:44:18.186Z,101252.38
2023-01-13T18:46:44.936Z,101250.13
2023-01-13T18:49:11.541Z,101251.69
2023-01-13T18:51:42.612Z,101257.53
2023-01-13T18:54:09.213Z,101266.97
2023-01-13T18:56:35.880Z,101257.44
2023-01-13T18:59:04.881Z,101262.59
2023-01-13T19:01:31.611Z,101268.09
2023-01-13T19:04:02.715Z,101256.13
2023-01-13T19:06:33.938Z,101261.19
2023-01-13T19:09:02.956Z,101275.19
2023-01-13T19:11:30.572Z,101279.88
2023-01-13T19:13:57.135Z,101289.94
2023-01-13T19:16:23.777Z,101287.56
2023-01-13T19:18:50.373Z,101300.44
2023-01-13T19:21:16.964Z,101303.81
2023-01-13T19:23:43.507Z,101298.84
2023-01-13T19:26:12.348Z,101290.28
2023-01-13T19:28:40.496Z,101303.13
2023-01-13T19:31:09.644Z,101304.25
2023-01-13T19:33:38.655Z,101310.00
2023-01-13T19:36:06.571Z,101305.41
2023-01-13T19:38:36.385Z,101313.53
2023-01-13T19:41:10.804Z,101309.22
2023-01-13T19:43:56.347Z,101320.50
2023-01-13T19:46:26.045Z,101337.53
2023-01-13T19:48:52.736Z,101320.84
2023-01-13T19:51:23.735Z,101325.13
2023-01-13T19:53:50.379Z,101331.00
2023-01-13T19:56:17.971Z,101333.75
2023-01-13T19:58:50.520Z,101334.91
2023-01-13T20:01:17.256Z,101339.63
2023-01-13T20:03:45.917Z,101348.97
2023-01-13T20:06:14.032Z,101348.97
2023-01-13T20:08:41.895Z,101356.31
2023-01-13T20:11:23.009Z,101351.22
2023-01-13T20:13:52.037Z,101353.59
2023-01-13T20:16:18.757Z,101364.09
2023-01-13T20:18:49.168Z,101363.31
2023-01-13T20:21:15.804Z,101372.13
2023-01-13T20:23:42.608Z,101373.28
2023-01-13T20:26:09.245Z,101372.91
2023-01-13T20:28:38.808Z,101362.88
2023-01-13T20:31:08.240Z,101369.78
2023-01-13T20:33:35.178Z,101365.81
2023-01-13T20:36:02.239Z,101364.16
2023-01-13T20:38:28.862Z,101378.84
2023-01-13T20:40:59.905Z,101393.16
2023-01-13T20:43:27.308Z,101403.31
2023-01-13T20:45:54.313Z,101404.09
2023-01-13T20:48:20.950Z,101416.88
2023-01-13T20:50:53.374Z,101407.50
2023-01-13T20:53:19.907Z,101418.31
2023-01-13T20:55:47.554Z,101418.31
2023-01-13T20:58:15.245Z,101409.41
2023-01-13T21:00:44.018Z,101417.47
2023-01-13T21:03:10.601Z,101420.84
2023-01-13T21:05:37.197Z,101421.63
2023-01-13T21:08:03.950Z,101430.56
2023-01-13T21:10:30.719Z,101432.13
2023-01-13T21:13:15.800Z,101438.69
2023-01-13T21:15:48.173Z,101442.16
2023-01-13T21:18:33.818Z,101446.44
2023-01-13T21:21:13.227Z,101450.38
2023-01-13T21:23:42.661Z,101450.81
2023-01-13T21:26:10.705Z,101451.25
2023-01-13T21:28:37.521Z,101457.03
2023-01-13T21:31:07.093Z,101450.13
2023-01-13T21:33:33.665Z,101460.59
2023-01-13T21:36:06.937Z,101460.28
2023-01-13T21:38:34.487Z,101462.53
2023-01-13T21:41:05.812Z,101470.66
2023-01-13T21:43:51.919Z,101461.41
2023-01-13T21:46:37.241Z,101466.47
2023-01-13T21:49:05.706Z,101469.16
2023-01-13T21:51:33.650Z,101462.19
2023-01-13T21:54:01.685Z,101476.84
2023-01-13T21:56:28.311Z,101478.44
2023-01-13T21:59:00.710Z,101484.31
2023-01-13T22:01:27.344Z,101485.09
2023-01-13T22:04:12.491Z,101487.78
2023-01-13T22:06:39.182Z,101490.06
2023-01-13T22:09:06.073Z,101485.78
2023-01-13T22:11:32.692Z,101497.06
2023-01-13T22:14:06.778Z,101497.47
2023-01-13T22:16:39.057Z,101513.38
2023-01-13T22:19:08.565Z,101507.31
2023-01-13T22:21:35.940Z,101515.84
2023-01-13T22:24:02.689Z,101505.81
2023-01-13T22:26:29.287Z,101512.00
2023-01-13T22:28:55.846Z,101519.44
2023-01-13T22:31:23.966Z,101521.81
2023-01-13T22:33:53.451Z,101518.66
2023-01-13T22:36:20.888Z,101515.84
2023-01-13T22:38:47.472Z,101519.38
2023-01-13T22:41:14.118Z,101524.41
2023-01-13T22:43:40.666Z,101518.22
2023-01-13T22:46:10.133Z,101517.88
2023-01-13T22:48:37.809Z,101531.41
2023-01-13T22:51:07.505Z,101515.50
2023-01-13T22:53:34.883Z,101512.00
2023-01-13T22:56:02.077Z,101523.56
2023-01-13T22:58:29.048Z,101531.22
2023-01-13T23:00:56.097Z,101532.00
2023-01-13T23:03:23.891Z,101535.50
2023-01-13T23:05:57.034Z,101524.34
2023-01-13T23:08:23.629Z,101538.66
2023-01-13T23:10:50.555Z,101542.16
2023-01-13T23:13:17.257Z,101542.94
2023-01-13T23:15:43.815Z,101540.59
2023-01-13T23:18:10.318Z,101543.97
2023-01-13T23:20:36.867Z,101543.63
2023-01-13T23:23:03.403Z,101543.75
2023-01-13T23:25:30.053Z,101528.59
2023-01-13T23:27:56.555Z,101525.91
2023-01-13T23:30:23.067Z,101522.84
2023-01-13T23:32:49.602Z,101513.56
2023-01-13T23:35:16.140Z,101519.81
2023-01-13T23:37:42.694Z,101521.38
2023-01-13T23:40:10.177Z,101507.81
2023-01-13T23:42:36.727Z,101504.78
2023-01-13T23:45:03.646Z,101505.13
2023-01-13T23:47:30.191Z,101506.59
2023-01-13T23:49:56.739Z,101512.78
2023-01-13T23:52:23.288Z,101508.16
2023-01-13T23:54:49.834Z,101508.59
2023-01-13T23:57:16.438Z,101522.16
2023-01-13T23:59:43.148Z,101514.84
